createdAt,value
2024-04-01T00:02:18.031Z,99228.40
2024-04-01T00:04:45.955Z,99233.40
2024-04-01T00:07:14.096Z,99227.20
2024-04-01T00:09:42.086Z,99228.80
2024-04-01T00:12:09.927Z,99233.80
2024-04-01T00:14:37.603Z,99235.80
2024-04-01T00:17:06.644Z,99235.40
2024-04-01T00:19:35.105Z,99238.60
2024-04-01T00:22:05.065Z,99240.60
2024-04-01T00:24:32.900Z,99235.40
2024-04-01T00:27:01.057Z,99230.00
2024-04-01T00:29:28.944Z,99235.20
2024-04-01T00:31:56.833Z,99226.80
2024-04-01T00:34:32.992Z,99222.80
2024-04-01T00:37:01.637Z,99215.20
2024-04-01T00:39:29.380Z,99203.60
2024-04-01T00:41:57.182Z,99196.80
2024-04-01T00:44:24.868Z,99201.20
2024-04-01T00:46:53.210Z,99208.40
2024-04-01T00:49:22.546Z,99204.40
2024-04-01T00:51:51.383Z,99200.60
2024-04-01T00:54:19.351Z,99206.00
2024-04-01T00:56:49.601Z,99198.20
2024-04-01T00:59:20.107Z,99197.20
2024-04-01T01:01:48.291Z,99188.60
2024-04-01T01:04:16.373Z,99179.60
2024-04-01T01:06:47.728Z,99174.60
2024-04-01T01:09:15.569Z,99169.20
2024-04-01T01:11:43.501Z,99165.40
2024-04-01T01:14:11.412Z,99167.00
2024-04-01T01:16:39.602Z,99171.40
2024-04-01T01:19:09.851Z,99172.20
2024-04-01T01:21:37.670Z,99169.80
2024-04-01T01:24:05.682Z,99167.20
2024-04-01T01:26:33.490Z,99166.00
2024-04-01T01:29:03.400Z,99165.20
2024-04-01T01:31:31.760Z,99162.00
2024-04-01T01:33:59.683Z,99165.40
2024-04-01T01:36:29.338Z,99169.00
2024-04-01T01:38:58.399Z,99165.20
2024-04-01T01:41:26.523Z,99167.40
2024-04-01T01:43:54.260Z,99168.00
2024-04-01T01:46:21.906Z,99169.40
2024-04-01T01:48:51.168Z,99170.80
2024-04-01T01:51:18.962Z,99170.80
2024-04-01T01:53:46.771Z,99179.20
2024-04-01T01:56:14.571Z,99180.00
2024-04-01T01:58:42.311Z,99176.80
2024-04-01T02:01:09.960Z,99174.40
2024-04-01T02:03:39.027Z,99171.00
2024-04-01T02:06:06.868Z,99169.00
2024-04-01T02:08:36.481Z,99165.20
2024-04-01T02:11:05.425Z,99168.20
2024-04-01T02:13:33.073Z,99171.20
2024-04-01T02:16:09.653Z,99167.20
2024-04-01T02:18:39.003Z,99171.20
2024-04-01T02:21:06.676Z,99168.40
2024-04-01T02:23:34.449Z,99170.80
2024-04-01T02:26:04.550Z,99172.60
2024-04-01T02:28:32.997Z,99162.60
2024-04-01T02:31:00.726Z,99159.60
2024-04-01T02:33:29.478Z,99156.40
2024-04-01T02:35:57.202Z,99149.20
2024-04-01T02:38:25.502Z,99148.60
2024-04-01T02:40:53.274Z,99137.40
2024-04-01T02:43:21.103Z,99132.40
2024-04-01T02:45:49.009Z,99137.20
2024-04-01T02:48:16.707Z,99142.00
2024-04-01T02:50:44.628Z,99147.40
2024-04-01T02:53:12.368Z,99148.80
2024-04-01T02:55:40.067Z,99149.40
2024-04-01T02:58:07.785Z,99152.00
2024-04-01T03:00:35.540Z,99148.40
2024-04-01T03:03:03.771Z,99148.40
2024-04-01T03:05:31.505Z,99149.60
2024-04-01T03:07:59.159Z,99147.80
2024-04-01T03:10:26.918Z,99153.20
2024-04-01T03:12:54.719Z,99147.00
2024-04-01T03:15:22.505Z,99148.80
2024-04-01T03:17:50.209Z,99148.20
2024-04-01T03:20:19.703Z,99141.80
2024-04-01T03:22:47.327Z,99141.80
2024-04-01T03:25:15.948Z,99143.80
2024-04-01T03:27:43.787Z,99149.60
2024-04-01T03:30:11.825Z,99149.00
2024-04-01T03:32:39.824Z,99147.00
2024-04-01T03:35:08.336Z,99152.00
2024-04-01T03:37:36.097Z,99147.80
2024-04-01T03:40:04.908Z,99140.60
2024-04-01T03:42:32.683Z,99139.20
2024-04-01T03:45:00.429Z,99143.00
2024-04-01T03:47:29.905Z,99145.60
2024-04-01T03:49:57.589Z,99142.60
2024-04-01T03:52:26.268Z,99142.00
2024-04-01T03:54:53.943Z,99141.00
2024-04-01T03:57:21.638Z,99142.80
2024-04-01T03:59:49.578Z,99137.20
2024-04-01T04:02:17.425Z,99138.60
2024-04-01T04:04:45.133Z,99135.20
2024-04-01T04:07:12.938Z,99135.80
2024-04-01T04:09:41.135Z,99136.60
2024-04-01T04:12:11.056Z,99136.00
2024-04-01T04:14:40.608Z,99131.00
2024-04-01T04:17:08.321Z,99129.40
2024-04-01T04:19:36.120Z,99122.80
2024-04-01T04:22:04.228Z,99120.60
2024-04-01T04:24:31.938Z,99121.20
2024-04-01T04:26:59.723Z,99113.80
2024-04-01T04:29:27.459Z,99111.80
2024-04-01T04:31:56.401Z,99110.20
2024-04-01T04:34:24.631Z,99111.80
2024-04-01T04:36:52.358Z,99109.60
2024-04-01T04:39:25.428Z,99106.60
2024-04-01T04:41:53.287Z,99098.00
2024-04-01T04:44:21.436Z,99090.80
2024-04-01T04:46:49.144Z,99090.40
2024-04-01T04:49:19.098Z,99086.20
2024-04-01T04:51:48.027Z,99080.20
2024-04-01T04:54:15.976Z,99074.00
2024-04-01T04:56:43.948Z,99073.80
2024-04-01T04:59:11.725Z,99066.80
2024-04-01T05:01:39.873Z,99071.60
2024-04-01T05:04:07.618Z,99072.00
2024-04-01T05:06:35.436Z,99068.20
2024-04-01T05:09:03.289Z,99069.60
2024-04-01T05:11:30.984Z,99067.80
2024-04-01T05:14:00.154Z,99069.80
2024-04-01T05:16:27.961Z,99077.80
2024-04-01T05:18:55.748Z,99073.80
2024-04-01T05:21:24.045Z,99065.60
2024-04-01T05:23:53.777Z,99055.00
2024-04-01T05:26:21.715Z,99061.60
2024-04-01T05:28:49.710Z,99064.00
2024-04-01T05:31:17.424Z,99062.20
2024-04-01T05:33:45.152Z,99062.00
2024-04-01T05:36:13.900Z,99051.20
2024-04-01T05:38:41.952Z,99046.00
2024-04-01T05:41:09.734Z,99042.40
2024-04-01T05:43:37.411Z,99034.00
2024-04-01T05:46:05.184Z,99020.20
2024-04-01T05:48:32.928Z,99012.80
2024-04-01T05:51:00.696Z,99015.60
2024-04-01T05:53:28.843Z,99018.00
2024-04-01T05:55:57.022Z,99001.40
2024-04-01T05:58:24.722Z,98994.20
2024-04-01T06:00:52.424Z,98990.40
2024-04-01T06:03:20.145Z,98987.40
2024-04-01T06:05:47.847Z,98987.00
2024-04-01T06:08:15.554Z,98985.20
2024-04-01T06:10:43.349Z,98983.60
2024-04-01T06:13:11.038Z,98979.80
2024-04-01T06:15:38.699Z,98976.20
2024-04-01T06:18:07.060Z,98979.20
2024-04-01T06:20:35.019Z,98974.00
2024-04-01T06:23:03.202Z,98976.00
2024-04-01T06:25:31.005Z,98973.80
2024-04-01T06:27:58.762Z,98963.40
2024-04-01T06:30:26.481Z,98955.40
2024-04-01T06:32:54.257Z,98957.20
2024-04-01T06:35:21.938Z,98966.40
2024-04-01T06:37:50.106Z,98980.60
2024-04-01T06:40:18.680Z,98987.20
2024-04-01T06:42:46.372Z,98993.40
2024-04-01T06:45:14.138Z,99009.80
2024-04-01T06:47:42.303Z,99007.60
2024-04-01T06:50:10.091Z,98999.40
2024-04-01T06:52:38.018Z,99000.20
2024-04-01T06:55:06.379Z,98993.60
2024-04-01T06:57:34.230Z,98992.60
2024-04-01T07:00:02.093Z,98983.40
2024-04-01T07:02:30.186Z,98973.20
2024-04-01T07:04:58.816Z,98983.20
2024-04-01T07:07:26.619Z,98976.00
2024-04-01T07:09:54.302Z,98964.80
2024-04-01T07:12:22.097Z,98974.20
2024-04-01T07:14:49.864Z,98972.00
2024-04-01T07:17:17.537Z,98968.00
2024-04-01T07:19:45.207Z,98975.00
2024-04-01T07:22:12.923Z,98985.80
2024-04-01T07:24:40.695Z,98980.20
2024-04-01T07:27:08.560Z,98988.80
2024-04-01T07:29:36.416Z,98987.00
2024-04-01T07:32:05.108Z,98988.40
2024-04-01T07:34:32.914Z,98998.60
2024-04-01T07:37:00.726Z,98992.60
2024-04-01T07:39:29.326Z,98974.20
2024-04-01T07:41:57.108Z,98968.20
2024-04-01T07:44:24.912Z,98975.80
2024-04-01T07:46:52.748Z,98963.40
2024-04-01T07:49:20.506Z,98950.60
2024-04-01T07:51:48.238Z,98961.60
2024-04-01T07:54:15.993Z,98955.00
2024-04-01T07:56:43.808Z,98943.80
2024-04-01T07:59:11.633Z,98942.80
2024-04-01T08:01:39.468Z,98943.00
2024-04-01T08:04:07.337Z,98929.40
2024-04-01T08:06:35.060Z,98908.80
2024-04-01T08:09:02.840Z,98911.00
2024-04-01T08:11:30.626Z,98898.00
2024-04-01T08:13:58.385Z,98881.40
2024-04-01T08:16:26.184Z,98877.60
2024-04-01T08:18:53.881Z,98873.20
2024-04-01T08:21:21.702Z,98859.60
2024-04-01T08:23:50.531Z,98858.20
2024-04-01T08:26:18.484Z,98855.20
2024-04-01T08:28:46.222Z,98851.20
2024-04-01T08:31:14.067Z,98837.00
2024-04-01T08:33:41.802Z,98829.80
2024-04-01T08:36:09.522Z,98825.60
2024-04-01T08:38:37.437Z,98823.80
2024-04-01T08:41:52.677Z,98804.80
2024-04-01T08:44:21.525Z,98792.80
2024-04-01T08:46:54.680Z,98780.80
2024-04-01T08:50:09.447Z,98782.60
2024-04-01T08:53:07.317Z,98775.20
2024-04-01T08:55:36.100Z,98768.20
2024-04-01T08:58:05.943Z,98764.60
2024-04-01T09:00:33.851Z,98758.60
2024-04-01T09:03:01.656Z,98765.80
2024-04-01T09:05:29.783Z,98764.00
2024-04-01T09:07:57.881Z,98764.00
2024-04-01T09:10:27.611Z,98757.20
2024-04-01T09:12:55.387Z,98761.40
2024-04-01T09:15:24.001Z,98764.60
2024-04-01T09:17:52.213Z,98777.00
2024-04-01T09:20:20.081Z,98782.80
2024-04-01T09:22:47.906Z,98788.40
2024-04-01T09:25:15.698Z,98789.80
2024-04-01T09:27:43.490Z,98787.40
2024-04-01T09:30:12.291Z,98785.60
2024-04-01T09:32:40.034Z,98797.00
2024-04-01T09:35:08.342Z,98781.80
2024-04-01T09:37:36.090Z,98793.00
2024-04-01T09:40:04.903Z,98784.00
2024-04-01T09:42:32.907Z,98784.00
2024-04-01T09:45:00.865Z,98790.20
2024-04-01T09:47:28.668Z,98784.60
2024-04-01T09:49:58.487Z,98784.80
2024-04-01T09:52:26.263Z,98783.40
2024-04-01T09:55:01.392Z,98775.00
2024-04-01T09:57:53.766Z,98763.60
2024-04-01T10:00:23.104Z,98745.80
2024-04-01T10:03:27.264Z,98747.20
2024-04-01T10:06:09.217Z,98738.40
2024-04-01T10:09:16.207Z,98730.60
2024-04-01T10:12:05.908Z,98724.20
2024-04-01T10:14:57.672Z,98704.20
2024-04-01T10:17:31.325Z,98685.00
2024-04-01T10:20:40.186Z,98683.80
2024-04-01T10:23:41.845Z,98684.60
2024-04-01T10:26:37.029Z,98674.40
2024-04-01T10:29:54.064Z,98675.20
2024-04-01T10:33:12.961Z,98661.60
2024-04-01T10:36:23.556Z,98663.80
2024-04-01T10:39:16.498Z,98688.00
2024-04-01T10:42:28.123Z,98709.40
2024-04-01T10:45:46.910Z,98711.20
2024-04-01T10:48:28.704Z,98715.20
2024-04-01T10:51:38.663Z,98725.60
2024-04-01T10:54:08.271Z,98728.60
2024-04-01T10:57:09.949Z,98729.80
2024-04-01T11:00:12.923Z,98733.40
2024-04-01T11:03:19.782Z,98730.40
2024-04-01T11:06:28.773Z,98714.20
2024-04-01T11:09:30.286Z,98721.20
2024-04-01T11:12:51.320Z,98722.60
2024-04-01T11:15:20.392Z,98727.80
2024-04-01T11:17:52.391Z,98731.60
2024-04-01T11:20:59.058Z,98712.20
2024-04-01T11:23:41.978Z,98714.40
2024-04-01T11:26:49.983Z,98713.20
2024-04-01T11:29:39.489Z,98705.40
2024-04-01T11:32:22.719Z,98716.40
2024-04-01T11:35:04.581Z,98714.00
2024-04-01T11:37:55.568Z,98700.40
2024-04-01T11:40:30.820Z,98694.80
2024-04-01T11:43:10.989Z,98685.80
2024-04-01T11:45:45.786Z,98684.20
2024-04-01T11:48:20.103Z,98683.20
2024-04-01T11:51:00.884Z,98671.20
2024-04-01T11:53:39.502Z,98668.60
2024-04-01T11:56:07.790Z,98668.00
2024-04-01T11:58:35.692Z,98686.20
2024-04-01T12:01:03.712Z,98684.20
2024-04-01T12:03:40.909Z,98692.40
2024-04-01T12:06:15.826Z,98687.20
2024-04-01T12:08:44.774Z,98672.20
2024-04-01T12:11:12.695Z,98671.40
2024-04-01T12:13:41.841Z,98672.40
2024-04-01T12:16:14.153Z,98677.20
2024-04-01T12:18:46.319Z,98690.40
2024-04-01T12:21:19.352Z,98696.80
2024-04-01T12:23:50.953Z,98696.80
2024-04-01T12:26:19.776Z,98702.80
2024-04-01T12:28:48.264Z,98705.80
2024-04-01T12:31:19.118Z,98710.80
2024-04-01T12:33:50.688Z,98705.60
2024-04-01T12:36:19.881Z,98713.00
2024-04-01T12:38:47.823Z,98724.00
2024-04-01T12:41:23.473Z,98727.60
2024-04-01T12:43:56.346Z,98729.80
2024-04-01T12:46:26.366Z,98729.40
2024-04-01T12:48:58.315Z,98729.00
2024-04-01T12:51:29.270Z,98716.80
2024-04-01T12:54:33.458Z,98711.40
2024-04-01T12:57:20.090Z,98705.80
2024-04-01T13:00:05.324Z,98700.00
2024-04-01T13:03:04.832Z,98702.40
2024-04-01T13:05:45.133Z,98715.80
2024-04-01T13:08:46.282Z,98725.60
2024-04-01T13:11:27.697Z,98714.60
2024-04-01T13:14:38.938Z,98709.80
2024-04-01T13:17:14.963Z,98701.80
2024-04-01T13:19:53.446Z,98693.40
2024-04-01T13:22:42.699Z,98683.80
2024-04-01T13:25:25.609Z,98697.40
2024-04-01T13:28:05.284Z,98693.40
2024-04-01T13:31:32.338Z,98689.00
2024-04-01T13:34:30.603Z,98688.60
2024-04-01T13:37:32.595Z,98684.80
2024-04-01T13:40:27.257Z,98698.60
2024-04-01T13:43:19.017Z,98705.00
2024-04-01T13:46:32.533Z,98689.80
2024-04-01T13:49:12.483Z,98684.00
2024-04-01T13:52:16.408Z,98679.40
2024-04-01T13:54:44.662Z,98689.00
2024-04-01T13:57:46.097Z,98699.20
2024-04-01T14:00:27.246Z,98699.40
2024-04-01T14:03:16.256Z,98700.60
2024-04-01T14:06:15.058Z,98696.00
2024-04-01T14:09:14.166Z,98711.40
2024-04-01T14:12:11.114Z,98723.00
2024-04-01T14:15:18.187Z,98721.40
2024-04-01T14:17:54.584Z,98716.60
2024-04-01T14:20:27.727Z,98710.80
2024-04-01T14:22:55.814Z,98715.80
2024-04-01T14:25:23.788Z,98709.40
2024-04-01T14:27:54.345Z,98720.40
2024-04-01T14:30:22.315Z,98711.20
2024-04-01T14:32:50.587Z,98707.60
2024-04-01T14:35:18.843Z,98724.80
2024-04-01T14:37:46.696Z,98731.00
2024-04-01T14:40:14.793Z,98738.60
2024-04-01T14:42:42.777Z,98727.40
2024-04-01T14:45:11.086Z,98735.00
2024-04-01T14:47:39.646Z,98736.00
2024-04-01T14:50:07.579Z,98727.60
2024-04-01T14:52:35.803Z,98731.80
2024-04-01T14:55:04.098Z,98733.80
2024-04-01T14:57:34.355Z,98743.60
2024-04-01T15:00:05.322Z,98737.60
2024-04-01T15:02:33.779Z,98742.00
2024-04-01T15:05:01.766Z,98737.80
2024-04-01T15:07:36.898Z,98747.60
2024-04-01T15:10:06.035Z,98742.60
2024-04-01T15:12:36.600Z,98752.40
2024-04-01T15:15:07.579Z,98757.40
2024-04-01T15:17:35.913Z,98752.00
2024-04-01T15:20:07.655Z,98758.00
2024-04-01T15:22:36.425Z,98763.60
2024-04-01T15:25:05.381Z,98755.20
2024-04-01T15:27:35.735Z,98762.60
2024-04-01T15:30:05.209Z,98782.00
2024-04-01T15:32:34.673Z,98772.60
2024-04-01T15:35:03.086Z,98765.00
2024-04-01T15:37:34.350Z,98764.20
2024-04-01T15:40:06.508Z,98763.60
2024-04-01T15:42:34.489Z,98758.20
2024-04-01T15:45:07.332Z,98767.20
2024-04-01T15:47:37.101Z,98767.00
2024-04-01T15:50:06.562Z,98768.20
2024-04-01T15:52:34.573Z,98769.60
2024-04-01T15:55:04.094Z,98779.60
2024-04-01T15:57:33.045Z,98793.80
2024-04-01T16:00:01.992Z,98794.60
2024-04-01T16:02:43.029Z,98814.20
2024-04-01T16:05:16.081Z,98828.00
2024-04-01T16:07:44.203Z,98832.60
2024-04-01T16:10:12.522Z,98840.60
2024-04-01T16:12:40.545Z,98847.60
2024-04-01T16:15:08.710Z,98851.40
2024-04-01T16:17:41.325Z,98868.40
2024-04-01T16:20:14.695Z,98892.20
2024-04-01T16:22:42.985Z,98904.40
2024-04-01T16:25:13.877Z,98912.80
2024-04-01T16:27:52.838Z,98921.20
2024-04-01T16:30:29.797Z,98921.60
2024-04-01T16:32:58.383Z,98929.00
2024-04-01T16:35:26.231Z,98938.00
2024-04-01T16:37:55.077Z,98950.00
2024-04-01T16:40:23.532Z,98959.20
2024-04-01T16:42:51.560Z,98953.60
2024-04-01T16:45:19.402Z,98967.80
2024-04-01T16:47:53.260Z,98971.60
2024-04-01T16:50:21.484Z,98984.80
2024-04-01T16:52:49.724Z,99001.00
2024-04-01T16:55:18.704Z,98996.00
2024-04-01T16:57:48.736Z,99007.00
2024-04-01T17:00:17.218Z,99017.00
2024-04-01T17:02:46.640Z,99006.20
2024-04-01T17:05:14.804Z,99005.60
2024-04-01T17:07:43.024Z,99010.00
2024-04-01T17:10:12.939Z,99011.20
2024-04-01T17:12:43.000Z,99019.00
2024-04-01T17:15:15.097Z,99023.60
2024-04-01T17:17:43.455Z,99026.20
2024-04-01T17:20:12.137Z,99033.20
2024-04-01T17:22:41.169Z,99039.80
2024-04-01T17:25:12.214Z,99050.40
2024-04-01T17:27:40.329Z,99043.20
2024-04-01T17:30:09.761Z,99054.60
2024-04-01T17:32:38.002Z,99067.40
2024-04-01T17:35:07.878Z,99075.80
2024-04-01T17:37:38.039Z,99079.60
2024-04-01T17:40:07.147Z,99065.60
2024-04-01T17:42:40.052Z,99066.60
2024-04-01T17:45:12.106Z,99059.20
2024-04-01T17:47:42.068Z,99060.80
2024-04-01T17:50:11.340Z,99062.40
2024-04-01T17:52:40.823Z,99059.40
2024-04-01T17:55:08.814Z,99069.80
2024-04-01T17:57:37.023Z,99065.20
2024-04-01T18:00:05.467Z,99065.20
2024-04-01T18:02:40.245Z,99064.60
2024-04-01T18:05:08.661Z,99065.20
2024-04-01T18:07:38.555Z,99062.60
2024-04-01T18:10:07.147Z,99077.80
2024-04-01T18:12:35.859Z,99084.80
2024-04-01T18:15:04.616Z,99076.20
2024-04-01T18:17:32.735Z,99070.80
2024-04-01T18:20:00.981Z,99069.20
2024-04-01T18:22:28.874Z,99074.80
2024-04-01T18:24:57.790Z,99086.60
2024-04-01T18:27:31.893Z,99089.60
2024-04-01T18:30:01.424Z,99095.80
2024-04-01T18:32:29.735Z,99115.60
2024-04-01T18:34:58.563Z,99132.80
2024-04-01T18:37:28.165Z,99133.00
2024-04-01T18:39:56.432Z,99132.00
2024-04-01T18:42:24.477Z,99124.80
2024-04-01T18:44:52.284Z,99123.20
2024-04-01T18:47:20.093Z,99120.20
2024-04-01T18:49:47.884Z,99127.60
2024-04-01T18:52:29.808Z,99143.20
2024-04-01T18:55:06.666Z,99132.40
2024-04-01T18:57:41.453Z,99137.40
2024-04-01T19:00:11.063Z,99146.00
2024-04-01T19:02:38.837Z,99147.20
2024-04-01T19:05:07.010Z,99146.80
2024-04-01T19:07:38.631Z,99163.60
2024-04-01T19:10:09.172Z,99172.40
2024-04-01T19:12:36.934Z,99182.20
2024-04-01T19:15:05.194Z,99181.40
2024-04-01T19:17:33.950Z,99183.20
2024-04-01T19:20:01.841Z,99185.00
2024-04-01T19:22:29.822Z,99187.80
2024-04-01T19:24:57.652Z,99184.40
2024-04-01T19:27:25.536Z,99187.40
2024-04-01T19:29:53.591Z,99183.20
2024-04-01T19:32:22.717Z,99182.80
2024-04-01T19:34:50.604Z,99188.40
2024-04-01T19:37:19.878Z,99193.60
2024-04-01T19:39:48.783Z,99196.20
2024-04-01T19:42:18.267Z,99195.40
2024-04-01T19:44:46.270Z,99205.00
2024-04-01T19:47:14.062Z,99200.80
2024-04-01T19:49:42.232Z,99192.40
2024-04-01T19:52:22.918Z,99192.20
2024-04-01T19:54:50.815Z,99188.60
2024-04-01T19:57:18.515Z,99188.80
2024-04-01T19:59:46.542Z,99200.80
2024-04-01T20:02:41.230Z,99193.60
2024-04-01T20:05:09.628Z,99179.60
2024-04-01T20:07:37.767Z,99182.40
2024-04-01T20:10:32.888Z,99183.60
2024-04-01T20:13:02.208Z,99192.20
2024-04-01T20:15:31.176Z,99194.00
2024-04-01T20:17:59.069Z,99186.40
2024-04-01T20:20:26.861Z,99187.40
2024-04-01T20:23:00.830Z,99190.40
2024-04-01T20:25:28.889Z,99188.40
2024-04-01T20:27:56.738Z,99186.60
2024-04-01T20:30:33.277Z,99194.20
2024-04-01T20:33:07.262Z,99199.40
2024-04-01T20:35:36.480Z,99208.20
2024-04-01T20:38:05.034Z,99212.60
2024-04-01T20:40:34.255Z,99212.00
2024-04-01T20:43:04.327Z,99208.60
2024-04-01T20:45:32.728Z,99209.40
2024-04-01T20:48:00.595Z,99212.60
2024-04-01T20:50:28.678Z,99215.80
2024-04-01T20:53:27.439Z,99214.00
2024-04-01T20:55:51.592Z,99221.00
2024-04-01T20:58:25.862Z,99230.00
2024-04-01T21:00:53.773Z,99237.20
2024-04-01T21:03:36.746Z,99239.40
2024-04-01T21:06:19.575Z,99246.40
2024-04-01T21:08:49.697Z,99239.20
2024-04-01T21:11:18.776Z,99233.80
2024-04-01T21:13:46.747Z,99243.00
2024-04-01T21:16:14.394Z,99235.20
2024-04-01T21:18:42.479Z,99243.40
2024-04-01T21:21:11.672Z,99256.20
2024-04-01T21:23:39.380Z,99260.80
2024-04-01T21:26:07.484Z,99251.40
2024-04-01T21:28:35.357Z,99249.20
2024-04-01T21:31:03.463Z,99272.60
2024-04-01T21:33:31.356Z,99282.60
2024-04-01T21:35:59.118Z,99276.20
2024-04-01T21:38:27.886Z,99284.00
2024-04-01T21:40:55.771Z,99285.20
2024-04-01T21:43:24.440Z,99284.20
2024-04-01T21:45:52.208Z,99282.80
2024-04-01T21:48:19.985Z,99279.20
2024-04-01T21:50:47.730Z,99286.00
2024-04-01T21:53:15.451Z,99288.60
2024-04-01T21:55:43.108Z,99287.60
2024-04-01T21:58:10.825Z,99281.40
2024-04-01T22:00:40.831Z,99282.80
2024-04-01T22:03:08.508Z,99282.60
2024-04-01T22:05:36.235Z,99288.00
2024-04-01T22:08:04.376Z,99289.00
2024-04-01T22:10:32.364Z,99305.20
2024-04-01T22:13:00.036Z,99298.20
2024-04-01T22:15:27.775Z,99293.60
2024-04-01T22:17:55.602Z,99286.80
2024-04-01T22:20:23.247Z,99293.80
2024-04-01T22:22:51.130Z,99307.20
2024-04-01T22:25:18.969Z,99315.00
2024-04-01T22:27:46.678Z,99313.40
2024-04-01T22:30:14.400Z,99315.20
2024-04-01T22:32:42.194Z,99325.40
2024-04-01T22:35:09.851Z,99334.60
2024-04-01T22:37:37.571Z,99329.20
2024-04-01T22:40:06.714Z,99327.60
2024-04-01T22:42:34.554Z,99334.80
2024-04-01T22:45:02.640Z,99337.60
2024-04-01T22:47:30.706Z,99352.20
2024-04-01T22:49:58.369Z,99350.80
2024-04-01T22:52:26.055Z,99360.00
2024-04-01T22:54:53.709Z,99369.60
2024-04-01T22:57:21.444Z,99368.40
2024-04-01T22:59:49.234Z,99373.20
2024-04-01T23:02:16.992Z,99360.20
2024-04-01T23:04:44.655Z,99351.80
2024-04-01T23:07:12.333Z,99350.00
2024-04-01T23:09:40.129Z,99342.60
2024-04-01T23:12:08.318Z,99342.40
2024-04-01T23:14:43.922Z,99360.80
2024-04-01T23:17:14.236Z,99360.40
2024-04-01T23:19:41.907Z,99364.00
2024-04-01T23:22:09.726Z,99378.40
2024-04-01T23:24:40.747Z,99376.80
2024-04-01T23:27:08.606Z,99385.20
2024-04-01T23:29:36.423Z,99376.40
2024-04-01T23:32:05.135Z,99386.80
2024-04-01T23:34:32.906Z,99387.20
2024-04-01T23:37:00.736Z,99389.20
2024-04-01T23:39:31.437Z,99408.60
2024-04-01T23:41:59.118Z,99401.40
2024-04-01T23:44:26.898Z,99411.20
2024-04-01T23:46:54.546Z,99417.60
2024-04-01T23:49:22.390Z,99418.20
2024-04-01T23:51:50.242Z,99400.40
2024-04-01T23:54:18.030Z,99400.00
2024-04-01T23:56:45.793Z,99397.80
2024-04-01T23:59:14.347Z,99402.60
